createdAt,value
2022-12-12T00:01:04.505Z,10.23
2022-12-12T00:03:06.798Z,10.53
2022-12-12T00:05:10.233Z,9.77
2022-12-12T00:07:12.303Z,10.20
2022-12-12T00:09:14.126Z,11.20
2022-12-12T00:11:16.467Z,11.40
2022-12-12T00:13:18.457Z,12.30
2022-12-12T00:15:20.260Z,10.97
2022-12-12T00:17:21.936Z,11.47
2022-12-12T00:19:23.651Z,12.03
2022-12-12T00:21:28.370Z,12.50
2022-12-12T00:23:30.115Z,12.40
2022-12-12T00:25:31.788Z,13.30
2022-12-12T00:27:34.071Z,13.60
2022-12-12T00:29:35.866Z,13.43
2022-12-12T00:31:38.271Z,15.43
2022-12-12T00:33:39.993Z,13.93
2022-12-12T00:35:41.765Z,14.83
2022-12-12T00:37:43.537Z,15.63
2022-12-12T00:39:45.768Z,15.47
2022-12-12T00:41:47.508Z,15.67
2022-12-12T00:43:50.358Z,17.00
2022-12-12T00:45:52.633Z,17.73
2022-12-12T00:47:54.588Z,17.37
2022-12-12T00:49:56.319Z,16.80
2022-12-12T00:51:58.001Z,16.73
2022-12-12T00:54:00.301Z,15.00
2022-12-12T00:56:02.056Z,15.50
2022-12-12T00:58:03.862Z,14.40
2022-12-12T01:00:07.670Z,13.87
2022-12-12T01:02:09.563Z,14.97
2022-12-12T01:04:11.602Z,14.60
2022-12-12T01:06:14.514Z,15.60
2022-12-12T01:08:16.573Z,15.20
2022-12-12T01:10:18.840Z,16.13
2022-12-12T01:12:20.596Z,13.73
2022-12-12T01:14:22.409Z,14.70
2022-12-12T01:16:25.083Z,16.00
2022-12-12T01:18:27.465Z,15.20
2022-12-12T01:20:29.349Z,16.07
2022-12-12T01:22:31.093Z,18.47
2022-12-12T01:24:32.852Z,16.57
2022-12-12T01:26:34.600Z,16.83
2022-12-12T01:28:36.630Z,17.27
2022-12-12T01:30:38.939Z,16.57
2022-12-12T01:32:40.799Z,16.03
2022-12-12T01:34:42.518Z,16.40
2022-12-12T01:36:44.214Z,16.13
2022-12-12T01:38:47.365Z,18.33
2022-12-12T01:40:49.095Z,15.37
2022-12-12T01:42:51.309Z,16.73
2022-12-12T01:44:53.701Z,15.93
2022-12-12T01:46:55.630Z,15.23
2022-12-12T01:49:06.632Z,17.13
2022-12-12T01:51:14.549Z,16.20
2022-12-12T01:53:18.653Z,17.00
2022-12-12T01:55:23.159Z,17.90
2022-12-12T01:57:30.476Z,16.83
2022-12-12T01:59:33.756Z,18.70
2022-12-12T02:01:36.100Z,17.83
2022-12-12T02:03:39.335Z,18.13
2022-12-12T02:06:00.989Z,19.23
2022-12-12T02:08:04.386Z,19.73
2022-12-12T02:10:06.564Z,18.53
2022-12-12T02:12:12.067Z,20.73
2022-12-12T02:14:36.934Z,20.10
2022-12-12T02:17:13.659Z,22.77
2022-12-12T02:19:39.295Z,22.20
2022-12-12T02:21:50.240Z,23.13
2022-12-12T02:23:57.942Z,24.00
2022-12-12T02:26:27.468Z,24.80
2022-12-12T02:28:54.207Z,24.80
2022-12-12T02:31:24.697Z,24.70
2022-12-12T02:33:30.918Z,26.60
2022-12-12T02:35:42.063Z,27.10
2022-12-12T02:38:09.755Z,25.77
2022-12-12T02:40:22.761Z,27.43
2022-12-12T02:42:29.961Z,28.33
2022-12-12T02:44:43.450Z,31.07
2022-12-12T02:47:07.967Z,30.13
2022-12-12T02:49:15.983Z,30.57
2022-12-12T02:51:18.692Z,33.40
2022-12-12T02:53:22.289Z,33.53
2022-12-12T02:55:23.936Z,31.50
2022-12-12T02:57:27.307Z,32.27
2022-12-12T02:59:40.277Z,30.53
2022-12-12T03:02:17.021Z,31.20
2022-12-12T03:05:02.726Z,30.10
2022-12-12T03:07:49.259Z,30.73
2022-12-12T03:10:04.599Z,31.27
2022-12-12T03:12:24.279Z,31.30
2022-12-12T03:15:07.378Z,33.23
2022-12-12T03:17:19.137Z,30.80
2022-12-12T03:19:36.192Z,32.50
2022-12-12T03:21:46.951Z,33.30
2022-12-12T03:23:54.337Z,31.40
2022-12-12T03:26:04.470Z,31.53
2022-12-12T03:28:24.369Z,28.93
2022-12-12T03:30:28.245Z,30.60
2022-12-12T03:32:43.115Z,32.33
2022-12-12T03:34:50.398Z,31.37
2022-12-12T03:37:20.036Z,30.10
2022-12-12T03:39:44.361Z,30.33
2022-12-12T03:41:58.279Z,29.97
2022-12-12T03:44:25.257Z,30.17
2022-12-12T03:46:52.069Z,30.80
2022-12-12T03:49:01.380Z,33.60
2022-12-12T03:51:19.918Z,32.60
2022-12-12T03:53:32.905Z,31.67
2022-12-12T03:55:43.255Z,31.00
2022-12-12T03:57:53.524Z,29.70
2022-12-12T04:00:01.745Z,32.13
2022-12-12T04:02:07.330Z,33.10
2022-12-12T04:04:18.166Z,31.70
2022-12-12T04:06:35.238Z,31.60
2022-12-12T04:08:38.079Z,30.83
2022-12-12T04:11:05.864Z,29.77
2022-12-12T04:13:51.383Z,28.77
2022-12-12T04:16:04.739Z,30.70
2022-12-12T04:18:27.100Z,29.10
2022-12-12T04:21:22.301Z,28.87
2022-12-12T04:23:43.478Z,28.50
2022-12-12T04:26:41.115Z,29.27
2022-12-12T04:29:13.291Z,29.20
2022-12-12T04:31:18.196Z,28.73
2022-12-12T04:33:24.157Z,30.17
2022-12-12T04:35:49.256Z,28.60
2022-12-12T04:38:22.983Z,29.03
2022-12-12T04:40:31.203Z,28.27
2022-12-12T04:42:37.737Z,29.53
2022-12-12T04:44:41.988Z,28.10
2022-12-12T04:46:44.835Z,31.20
2022-12-12T04:49:02.036Z,30.30
2022-12-12T04:51:05.937Z,29.63
2022-12-12T04:53:18.182Z,28.07
2022-12-12T04:55:27.731Z,29.27
2022-12-12T04:57:35.763Z,28.20
2022-12-12T04:59:38.312Z,30.57
2022-12-12T05:01:58.771Z,27.80
2022-12-12T05:04:14.043Z,29.97
2022-12-12T05:06:26.670Z,29.80
2022-12-12T05:08:46.340Z,27.10
2022-12-12T05:10:52.416Z,30.37
2022-12-12T05:12:58.559Z,32.97
2022-12-12T05:15:00.216Z,31.93
2022-12-12T05:17:08.181Z,33.47
2022-12-12T05:19:10.096Z,32.20
2022-12-12T05:21:12.215Z,33.00
2022-12-12T05:23:13.985Z,31.60
2022-12-12T05:25:15.863Z,32.50
2022-12-12T05:27:17.806Z,33.77
2022-12-12T05:29:19.478Z,32.13
2022-12-12T05:31:22.022Z,32.17
2022-12-12T05:33:23.766Z,33.27
2022-12-12T05:35:25.801Z,34.77
2022-12-12T05:37:27.867Z,33.70
2022-12-12T05:39:29.613Z,33.00
2022-12-12T05:41:31.252Z,31.70
2022-12-12T05:43:33.301Z,32.60
2022-12-12T05:45:34.964Z,31.30
2022-12-12T05:47:36.889Z,31.00
2022-12-12T05:49:38.542Z,31.87
2022-12-12T05:51:40.328Z,31.53
2022-12-12T05:53:43.139Z,31.97
2022-12-12T05:55:45.107Z,33.10
2022-12-12T05:57:46.801Z,31.90
2022-12-12T05:59:48.869Z,32.27
2022-12-12T06:01:50.559Z,31.20
2022-12-12T06:03:52.225Z,31.33
2022-12-12T06:05:53.952Z,31.07
2022-12-12T06:07:56.383Z,28.90
2022-12-12T06:09:58.037Z,31.17
2022-12-12T06:11:59.693Z,31.60
2022-12-12T06:14:01.377Z,31.17
2022-12-12T06:16:12.692Z,31.27
2022-12-12T06:18:14.439Z,30.80
2022-12-12T06:20:16.449Z,31.67
2022-12-12T06:22:18.312Z,29.90
2022-12-12T06:24:20.367Z,31.47
2022-12-12T06:26:22.391Z,29.43
2022-12-12T06:28:24.107Z,30.00
2022-12-12T06:30:26.091Z,30.60
2022-12-12T06:32:28.074Z,30.83
2022-12-12T06:34:29.734Z,29.87
2022-12-12T06:36:31.553Z,30.80
2022-12-12T06:38:34.215Z,28.90
2022-12-12T06:40:38.661Z,26.77
2022-12-12T06:42:44.772Z,27.90
2022-12-12T06:44:49.863Z,29.37
2022-12-12T06:46:51.532Z,26.47
2022-12-12T06:48:54.131Z,30.20
2022-12-12T06:50:55.872Z,27.03
2022-12-12T06:52:57.723Z,28.70
2022-12-12T06:54:59.686Z,27.57
2022-12-12T06:57:01.477Z,28.43
2022-12-12T06:59:03.435Z,28.00
2022-12-12T07:01:06.084Z,24.27
2022-12-12T07:03:09.472Z,27.80
2022-12-12T07:05:11.507Z,27.57
2022-12-12T07:07:13.340Z,26.67
2022-12-12T07:09:15.160Z,27.13
2022-12-12T07:11:20.884Z,26.20
2022-12-12T07:13:23.052Z,26.67
2022-12-12T07:15:25.005Z,26.97
2022-12-12T07:17:26.686Z,26.13
2022-12-12T07:19:28.586Z,25.57
2022-12-12T07:21:30.373Z,23.00
2022-12-12T07:23:32.915Z,24.00
2022-12-12T07:25:37.548Z,26.40
2022-12-12T07:27:39.278Z,26.43
2022-12-12T07:29:40.960Z,24.67
2022-12-12T07:31:42.713Z,25.07
2022-12-12T07:33:44.963Z,27.73
2022-12-12T07:35:46.777Z,25.47
2022-12-12T07:37:48.492Z,25.67
2022-12-12T07:39:50.295Z,26.03
2022-12-12T07:41:51.969Z,26.67
2022-12-12T07:43:53.765Z,25.53
2022-12-12T07:45:55.420Z,24.27
2022-12-12T07:47:57.077Z,24.23
2022-12-12T07:49:58.940Z,23.57
2022-12-12T07:52:00.651Z,23.67
2022-12-12T07:54:02.374Z,23.73
2022-12-12T07:56:12.163Z,21.97
2022-12-12T07:58:13.878Z,21.43
2022-12-12T08:00:16.373Z,22.60
2022-12-12T08:02:18.266Z,23.20
2022-12-12T08:04:20.197Z,20.10
2022-12-12T08:06:23.292Z,21.33
2022-12-12T08:08:25.011Z,22.80
2022-12-12T08:10:26.829Z,21.00
2022-12-12T08:12:32.043Z,24.20
2022-12-12T08:14:34.003Z,21.33
2022-12-12T08:16:35.742Z,25.97
2022-12-12T08:18:37.462Z,20.30
2022-12-12T08:20:41.922Z,21.73
2022-12-12T08:22:43.937Z,18.83
2022-12-12T08:24:45.850Z,20.97
2022-12-12T08:26:50.321Z,17.93
2022-12-12T08:28:52.436Z,20.47
2022-12-12T08:30:54.154Z,19.00
2022-12-12T08:32:55.933Z,18.40
2022-12-12T08:34:58.636Z,19.00
2022-12-12T08:37:00.359Z,17.73
2022-12-12T08:39:08.556Z,17.37
2022-12-12T08:41:11.783Z,17.53
2022-12-12T08:43:13.650Z,18.33
2022-12-12T08:45:15.778Z,16.50
2022-12-12T08:47:17.697Z,17.70
2022-12-12T08:49:19.481Z,17.40
2022-12-12T08:51:21.556Z,16.63
2022-12-12T08:53:24.152Z,16.63
2022-12-12T08:55:25.885Z,16.40
2022-12-12T08:57:27.675Z,17.33
2022-12-12T08:59:29.931Z,16.67
2022-12-12T09:01:32.208Z,18.50
2022-12-12T09:03:33.937Z,18.03
2022-12-12T09:05:36.030Z,18.33
2022-12-12T09:07:38.071Z,18.73
2022-12-12T09:09:39.896Z,16.33
2022-12-12T09:11:41.619Z,17.07
2022-12-12T09:13:44.021Z,16.27
2022-12-12T09:15:45.998Z,16.10
2022-12-12T09:17:47.754Z,16.47
2022-12-12T09:19:50.076Z,17.13
2022-12-12T09:21:51.756Z,25.13
2022-12-12T09:23:53.732Z,12.90
2022-12-12T09:25:55.663Z,15.20
2022-12-12T09:27:57.680Z,14.40
2022-12-12T09:29:59.624Z,15.10
2022-12-12T09:32:06.335Z,14.83
2022-12-12T09:34:08.435Z,17.30
2022-12-12T09:36:12.325Z,15.20
2022-12-12T09:38:15.278Z,13.90
2022-12-12T09:40:42.171Z,14.10
2022-12-12T09:42:49.363Z,13.50
2022-12-12T09:44:59.030Z,13.63
2022-12-12T09:47:06.113Z,12.63
2022-12-12T09:49:30.911Z,11.70
2022-12-12T09:51:35.403Z,11.90
2022-12-12T09:53:38.423Z,12.97
2022-12-12T09:56:10.926Z,11.57
2022-12-12T09:58:26.748Z,11.63
2022-12-12T10:00:33.305Z,10.80
2022-12-12T10:03:17.175Z,12.50
2022-12-12T10:05:31.135Z,11.87
2022-12-12T10:07:58.894Z,10.90
2022-12-12T10:10:25.495Z,11.90
2022-12-12T10:12:28.040Z,10.80
2022-12-12T10:14:46.358Z,12.10
2022-12-12T10:16:53.950Z,13.27
2022-12-12T10:19:23.864Z,13.57
2022-12-12T10:21:30.180Z,12.80
2022-12-12T10:23:42.020Z,12.30
2022-12-12T10:26:07.606Z,13.23
2022-12-12T10:28:13.131Z,13.13
2022-12-12T10:30:17.899Z,11.10
2022-12-12T10:32:40.445Z,13.90
2022-12-12T10:35:14.943Z,11.23
2022-12-12T10:38:03.406Z,11.87
2022-12-12T10:40:14.156Z,12.53
2022-12-12T10:42:39.410Z,13.00
2022-12-12T10:45:02.895Z,13.17
2022-12-12T10:47:10.689Z,13.80
2022-12-12T10:49:20.039Z,10.93
2022-12-12T10:51:24.647Z,13.00
2022-12-12T10:53:26.975Z,11.30
2022-12-12T10:55:48.549Z,10.67
2022-12-12T10:58:04.360Z,13.30
2022-12-12T11:00:25.314Z,10.87
2022-12-12T11:02:34.704Z,11.00
2022-12-12T11:04:37.604Z,10.50
2022-12-12T11:06:51.639Z,11.00
2022-12-12T11:08:57.837Z,10.37
2022-12-12T11:11:20.343Z,11.50
2022-12-12T11:13:22.010Z,11.37
2022-12-12T11:15:39.084Z,9.23
2022-12-12T11:17:40.884Z,10.57
2022-12-12T11:19:46.161Z,9.80
2022-12-12T11:21:48.529Z,10.10
2022-12-12T11:23:55.329Z,10.77
2022-12-12T11:25:59.947Z,9.50
2022-12-12T11:28:06.551Z,10.20
2022-12-12T11:30:23.557Z,11.60
2022-12-12T11:32:47.073Z,9.73
2022-12-12T11:34:55.656Z,10.27
2022-12-12T11:36:59.797Z,10.30
2022-12-12T11:39:12.679Z,9.23
2022-12-12T11:41:14.356Z,9.20
2022-12-12T11:43:16.020Z,9.47
2022-12-12T11:45:17.623Z,9.77
2022-12-12T11:47:24.720Z,10.13
2022-12-12T11:49:26.449Z,10.00
2022-12-12T11:51:41.023Z,10.10
2022-12-12T11:53:46.065Z,9.60
2022-12-12T11:56:10.303Z,7.07
2022-12-12T11:58:22.528Z,9.87
2022-12-12T12:00:26.739Z,8.97
2022-12-12T12:03:07.107Z,9.73
2022-12-12T12:05:39.468Z,9.90
2022-12-12T12:08:00.734Z,10.20
2022-12-12T12:10:24.088Z,10.03
2022-12-12T12:13:15.549Z,11.13
2022-12-12T12:15:35.847Z,10.80
2022-12-12T12:17:58.995Z,10.17
2022-12-12T12:20:31.535Z,10.60
2022-12-12T12:22:48.212Z,11.70
2022-12-12T12:24:52.833Z,12.83
2022-12-12T12:27:07.773Z,12.40
2022-12-12T12:29:28.617Z,10.27
2022-12-12T12:31:41.163Z,11.00
2022-12-12T12:33:42.847Z,10.43
2022-12-12T12:36:01.813Z,11.57
2022-12-12T12:38:18.594Z,9.70
2022-12-12T12:40:59.513Z,9.90
2022-12-12T12:43:25.021Z,11.13
2022-12-12T12:45:53.245Z,10.53
2022-12-12T12:48:03.468Z,10.47
2022-12-12T12:50:36.872Z,11.33
2022-12-12T12:52:50.133Z,11.90
2022-12-12T12:54:54.189Z,11.13
2022-12-12T12:57:33.048Z,11.93
2022-12-12T12:59:38.862Z,11.73
2022-12-12T13:01:50.529Z,13.60
2022-12-12T13:04:03.051Z,12.60
2022-12-12T13:06:12.710Z,12.90
2022-12-12T13:08:59.352Z,13.90
2022-12-12T13:11:18.075Z,12.13
2022-12-12T13:13:30.719Z,11.33
2022-12-12T13:15:41.699Z,12.87
2022-12-12T13:18:12.582Z,13.53
2022-12-12T13:20:18.219Z,14.93
2022-12-12T13:22:35.876Z,13.03
2022-12-12T13:25:23.881Z,12.83
2022-12-12T13:27:33.181Z,14.03
2022-12-12T13:29:43.839Z,16.37
2022-12-12T13:32:23.671Z,16.50
2022-12-12T13:34:29.390Z,14.07
2022-12-12T13:36:38.352Z,15.90
2022-12-12T13:38:45.402Z,14.50
2022-12-12T13:41:02.014Z,16.10
2022-12-12T13:43:25.925Z,15.57
2022-12-12T13:45:39.082Z,16.50
2022-12-12T13:47:40.802Z,15.13
2022-12-12T13:49:53.336Z,13.77
2022-12-12T13:52:27.203Z,14.77
2022-12-12T13:54:31.849Z,13.50
2022-12-12T13:56:36.579Z,14.23
2022-12-12T13:58:38.352Z,13.97
2022-12-12T14:00:41.652Z,12.40
2022-12-12T14:02:53.347Z,12.83
2022-12-12T14:05:07.892Z,12.47
2022-12-12T14:07:12.608Z,13.30
2022-12-12T14:09:21.515Z,11.80
2022-12-12T14:11:30.799Z,14.07
2022-12-12T14:13:46.022Z,12.77
2022-12-12T14:15:50.872Z,12.70
2022-12-12T14:18:04.531Z,12.97
2022-12-12T14:20:07.026Z,12.47
2022-12-12T14:22:29.970Z,13.40
2022-12-12T14:24:34.905Z,13.13
2022-12-12T14:26:57.033Z,13.33
2022-12-12T14:29:17.361Z,13.70
2022-12-12T14:31:19.359Z,12.97
2022-12-12T14:33:42.509Z,14.40
2022-12-12T14:36:06.613Z,14.73
2022-12-12T14:38:53.118Z,13.90
2022-12-12T14:41:00.421Z,13.40
2022-12-12T14:43:19.629Z,14.93
2022-12-12T14:45:26.352Z,13.13
2022-12-12T14:47:28.260Z,12.93
2022-12-12T14:49:29.959Z,11.57
2022-12-12T14:51:36.155Z,12.77
2022-12-12T14:53:37.830Z,10.60
2022-12-12T14:56:06.745Z,10.90
2022-12-12T14:58:08.472Z,10.70
2022-12-12T15:00:19.181Z,11.17
2022-12-12T15:02:39.443Z,12.83
2022-12-12T15:04:44.151Z,12.60
2022-12-12T15:06:50.467Z,12.60
2022-12-12T15:08:52.977Z,13.80
2022-12-12T15:10:59.630Z,14.00
2022-12-12T15:13:01.452Z,14.17
2022-12-12T15:15:05.215Z,13.37
2022-12-12T15:17:18.005Z,14.27
2022-12-12T15:19:29.060Z,13.43
2022-12-12T15:21:34.116Z,15.63
2022-12-12T15:23:35.910Z,14.80
2022-12-12T15:25:54.172Z,17.53
2022-12-12T15:27:56.818Z,16.60
2022-12-12T15:30:00.644Z,21.90
2022-12-12T15:32:14.482Z,20.17
2022-12-12T15:34:36.869Z,25.83
2022-12-12T15:36:38.547Z,24.90
2022-12-12T15:38:40.298Z,25.90
2022-12-12T15:40:44.920Z,21.40
2022-12-12T15:42:51.561Z,27.00
2022-12-12T15:44:53.549Z,19.60
2022-12-12T15:46:55.858Z,20.20
2022-12-12T15:48:57.656Z,26.40
2022-12-12T15:51:06.551Z,23.03
2022-12-12T15:53:46.012Z,22.07
2022-12-12T15:56:09.366Z,22.30
2022-12-12T15:58:28.940Z,19.20
2022-12-12T16:00:38.246Z,20.20
2022-12-12T16:02:40.851Z,18.47
2022-12-12T16:04:54.358Z,18.93
2022-12-12T16:07:20.349Z,17.57
2022-12-12T16:09:24.423Z,18.37
2022-12-12T16:11:31.827Z,16.80
2022-12-12T16:13:42.073Z,18.47
2022-12-12T16:15:43.994Z,19.23
2022-12-12T16:18:05.533Z,16.07
2022-12-12T16:20:14.619Z,17.80
2022-12-12T16:22:56.926Z,18.60
2022-12-12T16:25:17.500Z,19.57
2022-12-12T16:27:19.981Z,22.90
2022-12-12T16:29:21.804Z,27.93
2022-12-12T16:31:23.803Z,23.10
2022-12-12T16:33:37.237Z,21.37
2022-12-12T16:35:39.031Z,17.73
2022-12-12T16:37:40.851Z,19.23
2022-12-12T16:39:43.169Z,21.43
2022-12-12T16:41:44.915Z,33.63
2022-12-12T16:43:46.771Z,39.40
2022-12-12T16:45:53.169Z,31.10
2022-12-12T16:47:55.291Z,24.47
2022-12-12T16:49:57.141Z,19.67
2022-12-12T16:51:58.792Z,17.57
2022-12-12T16:54:00.988Z,16.20
2022-12-12T16:56:04.013Z,15.00
2022-12-12T16:58:05.992Z,15.50
2022-12-12T17:00:08.672Z,16.17
2022-12-12T17:02:21.952Z,14.43
2022-12-12T17:04:24.745Z,14.00
2022-12-12T17:06:26.513Z,15.00
2022-12-12T17:08:28.623Z,16.43
2022-12-12T17:10:33.608Z,15.70
2022-12-12T17:12:37.625Z,17.67
2022-12-12T17:14:39.572Z,16.23
2022-12-12T17:16:41.386Z,15.40
2022-12-12T17:18:43.371Z,14.97
2022-12-12T17:20:45.822Z,14.70
2022-12-12T17:22:47.737Z,13.97
2022-12-12T17:24:49.480Z,15.33
2022-12-12T17:26:51.193Z,14.73
2022-12-12T17:28:52.999Z,14.50
2022-12-12T17:30:54.993Z,13.30
2022-12-12T17:35:15.895Z,15.73
2022-12-12T17:37:17.677Z,15.50
2022-12-12T17:39:19.661Z,13.93
2022-12-12T17:41:21.493Z,14.87
2022-12-12T17:43:24.660Z,15.60
2022-12-12T17:45:26.543Z,16.00
2022-12-12T17:47:28.402Z,14.20
2022-12-12T17:49:30.720Z,16.10
2022-12-12T17:51:32.446Z,15.83
2022-12-12T17:53:38.094Z,16.20
2022-12-12T17:55:53.044Z,15.57
2022-12-12T17:57:57.174Z,15.60
2022-12-12T17:59:59.087Z,16.47
2022-12-12T18:02:01.064Z,14.33
2022-12-12T18:04:04.747Z,14.40
2022-12-12T18:06:07.151Z,16.43
2022-12-12T18:08:08.853Z,15.70
2022-12-12T18:10:10.926Z,15.33
2022-12-12T18:12:13.195Z,15.63
2022-12-12T18:14:18.308Z,15.37
2022-12-12T18:16:20.950Z,15.23
2022-12-12T18:18:23.796Z,15.07
2022-12-12T18:20:29.561Z,14.83
2022-12-12T18:22:32.800Z,17.00
2022-12-12T18:24:34.616Z,16.50
2022-12-12T18:26:36.673Z,14.90
2022-12-12T18:28:38.943Z,15.60
2022-12-12T18:30:41.351Z,15.30
2022-12-12T18:32:43.208Z,15.17
2022-12-12T18:34:45.206Z,15.90
2022-12-12T18:36:46.950Z,15.67
2022-12-12T18:38:49.020Z,16.20
2022-12-12T18:40:52.909Z,17.57
2022-12-12T18:42:54.831Z,15.70
2022-12-12T18:44:56.528Z,16.63
2022-12-12T18:46:58.185Z,16.30
2022-12-12T18:49:00.250Z,16.20
2022-12-12T18:51:17.231Z,14.83
2022-12-12T18:53:21.874Z,15.60
2022-12-12T18:55:26.075Z,16.00
2022-12-12T18:57:28.039Z,16.30
2022-12-12T18:59:29.814Z,16.20
2022-12-12T19:01:34.243Z,17.30
2022-12-12T19:03:37.872Z,18.07
2022-12-12T19:05:42.614Z,16.07
2022-12-12T19:07:47.097Z,16.87
2022-12-12T19:09:49.053Z,14.97
2022-12-12T19:11:55.580Z,16.27
2022-12-12T19:14:03.789Z,14.47
2022-12-12T19:16:11.405Z,15.63
2022-12-12T19:18:13.407Z,15.93
2022-12-12T19:20:15.627Z,14.20
2022-12-12T19:22:43.697Z,14.27
2022-12-12T19:24:41.013Z,15.13
2022-12-12T19:26:44.337Z,15.40
2022-12-12T19:28:47.712Z,20.90
2022-12-12T19:30:49.711Z,17.43
2022-12-12T19:32:51.527Z,15.20
2022-12-12T19:34:53.319Z,15.50
2022-12-12T19:36:55.379Z,16.07
2022-12-12T19:38:59.166Z,16.20
2022-12-12T19:41:05.227Z,16.90
2022-12-12T19:43:07.163Z,16.40
2022-12-12T19:45:09.763Z,15.97
2022-12-12T19:47:13.123Z,14.13
2022-12-12T19:49:16.483Z,16.20
2022-12-12T19:51:21.141Z,16.20
2022-12-12T19:53:22.872Z,15.63
2022-12-12T19:55:24.710Z,14.80
2022-12-12T19:57:26.489Z,15.83
2022-12-12T19:59:28.237Z,18.20
2022-12-12T20:01:32.658Z,26.10
2022-12-12T20:03:35.164Z,18.20
2022-12-12T20:05:36.881Z,16.20
2022-12-12T20:07:39.222Z,17.53
2022-12-12T20:09:41.064Z,16.10
2022-12-12T20:11:45.366Z,16.57
2022-12-12T20:13:51.779Z,15.87
2022-12-12T20:15:53.535Z,17.63
2022-12-12T20:17:59.955Z,16.43
2022-12-12T20:20:01.899Z,18.50
2022-12-12T20:22:04.208Z,17.10
2022-12-12T20:24:07.319Z,17.90
2022-12-12T20:26:15.643Z,17.10
2022-12-12T20:28:17.291Z,17.10
2022-12-12T20:30:19.190Z,17.40
2022-12-12T20:32:20.863Z,17.40
2022-12-12T20:34:24.528Z,16.13
2022-12-12T20:36:32.180Z,17.93
2022-12-12T20:38:36.928Z,17.37
2022-12-12T20:40:39.732Z,18.40
2022-12-12T20:42:41.616Z,16.93
2022-12-12T20:44:43.288Z,19.10
2022-12-12T20:46:46.943Z,19.20
2022-12-12T20:48:49.918Z,20.90
2022-12-12T20:50:51.640Z,18.50
2022-12-12T20:52:53.460Z,18.50
2022-12-12T20:54:55.232Z,19.67
2022-12-12T20:56:58.719Z,20.57
2022-12-12T20:59:02.352Z,16.97
2022-12-12T21:01:22.100Z,17.77
2022-12-12T21:03:24.341Z,18.60
2022-12-12T21:05:26.179Z,18.03
2022-12-12T21:07:27.961Z,18.63
2022-12-12T21:09:30.058Z,19.40
2022-12-12T21:11:32.296Z,17.37
2022-12-12T21:13:34.501Z,16.90
2022-12-12T21:15:37.286Z,16.10
2022-12-12T21:17:39.365Z,14.57
2022-12-12T21:19:41.201Z,15.87
2022-12-12T21:21:43.607Z,14.70
2022-12-12T21:23:45.500Z,16.53
2022-12-12T21:25:47.856Z,13.53
2022-12-12T21:27:49.662Z,15.60
2022-12-12T21:29:51.355Z,16.50
2022-12-12T21:31:53.225Z,17.30
2022-12-12T21:33:55.432Z,16.87
2022-12-12T21:36:06.016Z,15.93
2022-12-12T21:38:07.939Z,16.23
2022-12-12T21:40:10.757Z,16.10
2022-12-12T21:42:12.566Z,16.73
2022-12-12T21:44:14.287Z,15.77
2022-12-12T21:46:22.131Z,15.70
2022-12-12T21:48:24.134Z,15.57
2022-12-12T21:50:30.492Z,16.67
2022-12-12T21:52:32.599Z,15.43
2022-12-12T21:54:34.429Z,16.20
2022-12-12T21:56:36.300Z,16.37
2022-12-12T21:58:39.194Z,15.57
2022-12-12T22:00:42.733Z,16.07
2022-12-12T22:02:49.761Z,15.00
2022-12-12T22:04:52.060Z,15.80
2022-12-12T22:06:53.889Z,16.77
2022-12-12T22:08:56.434Z,19.73
2022-12-12T22:10:59.700Z,19.60
2022-12-12T22:13:01.569Z,15.80
2022-12-12T22:15:03.764Z,16.67
2022-12-12T22:17:05.863Z,17.80
2022-12-12T22:19:11.708Z,20.67
2022-12-12T22:21:16.236Z,19.80
2022-12-12T22:23:18.291Z,19.43
2022-12-12T22:25:20.083Z,19.80
2022-12-12T22:27:21.994Z,16.87
2022-12-12T22:29:23.882Z,16.70
2022-12-12T22:31:29.400Z,16.13
2022-12-12T22:33:31.197Z,16.57
2022-12-12T22:35:33.356Z,16.00
2022-12-12T22:37:35.328Z,15.93
2022-12-12T22:39:37.128Z,15.90
2022-12-12T22:41:38.940Z,16.37
2022-12-12T22:43:40.643Z,16.57
2022-12-12T22:45:42.628Z,16.10
2022-12-12T22:47:44.389Z,15.50
2022-12-12T22:49:46.224Z,16.40
2022-12-12T22:51:49.219Z,15.93
2022-12-12T22:53:51.318Z,16.23
2022-12-12T22:55:53.028Z,15.37
2022-12-12T22:57:55.061Z,17.53
2022-12-12T22:59:56.859Z,16.53
2022-12-12T23:01:58.724Z,16.87
2022-12-12T23:04:00.857Z,16.20
2022-12-12T23:06:09.876Z,16.50
2022-12-12T23:08:11.686Z,16.90
2022-12-12T23:10:13.741Z,15.87
2022-12-12T23:12:15.765Z,15.00
2022-12-12T23:14:21.769Z,15.87
2022-12-12T23:16:25.021Z,18.10
2022-12-12T23:18:26.797Z,18.00
2022-12-12T23:20:28.501Z,18.20
2022-12-12T23:22:30.502Z,16.10
2022-12-12T23:24:32.515Z,19.20
2022-12-12T23:26:36.597Z,18.73
2022-12-12T23:28:39.482Z,17.57
2022-12-12T23:30:41.164Z,17.40
2022-12-12T23:32:42.895Z,18.30
2022-12-12T23:34:45.388Z,19.17
2022-12-12T23:36:47.891Z,19.33
2022-12-12T23:38:53.795Z,20.40
2022-12-12T23:40:55.783Z,18.03
2022-12-12T23:42:57.580Z,19.53
2022-12-12T23:44:59.619Z,19.53
2022-12-12T23:47:01.386Z,19.27
2022-12-12T23:49:24.515Z,21.77
2022-12-12T23:51:28.313Z,20.40
2022-12-12T23:53:32.900Z,20.87
2022-12-12T23:55:34.664Z,21.93
2022-12-12T23:57:36.511Z,22.50
2022-12-12T23:59:38.944Z,20.97
